sensor_id;sensor_type;location;lat;lon;timestamp;temperature;humidity
15172;DHT22;7686;52.184;9.280;2023-04-15T00:01:57;28.40;30.10
15172;DHT22;7686;52.184;9.280;2023-04-15T00:04:26;28.40;30.20
15172;DHT22;7686;52.184;9.280;2023-04-15T00:06:53;28.30;30.10
15172;DHT22;7686;52.184;9.280;2023-04-15T00:09:20;28.30;30.10
15172;DHT22;7686;52.184;9.280;2023-04-15T00:11:47;28.30;30.20
15172;DHT22;7686;52.184;9.280;2023-04-15T00:14:13;28.30;30.20
15172;DHT22;7686;52.184;9.280;2023-04-15T00:16:40;28.30;30.20
15172;DHT22;7686;52.184;9.280;2023-04-15T00:19:07;28.30;30.20
15172;DHT22;7686;52.184;9.280;2023-04-15T00:21:34;28.30;30.20
15172;DHT22;7686;52.184;9.280;2023-04-15T00:24:01;28.30;30.30
15172;DHT22;7686;52.184;9.280;2023-04-15T00:26:27;28.30;30.30
15172;DHT22;7686;52.184;9.280;2023-04-15T00:28:54;28.30;30.30
15172;DHT22;7686;52.184;9.280;2023-04-15T00:31:20;28.30;30.30
15172;DHT22;7686;52.184;9.280;2023-04-15T00:33:47;28.20;30.20
15172;DHT22;7686;52.184;9.280;2023-04-15T00:36:14;28.20;30.20
15172;DHT22;7686;52.184;9.280;2023-04-15T00:38:41;28.20;30.30
15172;DHT22;7686;52.184;9.280;2023-04-15T00:41:08;28.30;30.40
15172;DHT22;7686;52.184;9.280;2023-04-15T00:43:35;28.20;30.30
15172;DHT22;7686;52.184;9.280;2023-04-15T00:46:04;28.20;30.30
15172;DHT22;7686;52.184;9.280;2023-04-15T00:48:31;28.20;30.40
15172;DHT22;7686;52.184;9.280;2023-04-15T00:50:58;28.20;30.30
15172;DHT22;7686;52.184;9.280;2023-04-15T00:53:24;28.20;30.70
15172;DHT22;7686;52.184;9.280;2023-04-15T00:55:51;28.10;30.30
15172;DHT22;7686;52.184;9.280;2023-04-15T00:58:18;28.10;30.30
15172;DHT22;7686;52.184;9.280;2023-04-15T01:00:45;28.10;30.30
15172;DHT22;7686;52.184;9.280;2023-04-15T01:03:12;28.20;30.40
15172;DHT22;7686;52.184;9.280;2023-04-15T01:05:41;28.20;30.40
15172;DHT22;7686;52.184;9.280;2023-04-15T01:08:07;28.10;30.30
15172;DHT22;7686;52.184;9.280;2023-04-15T01:10:35;28.10;30.30
15172;DHT22;7686;52.184;9.280;2023-04-15T01:13:02;28.10;30.30
15172;DHT22;7686;52.184;9.280;2023-04-15T01:15:29;28.10;30.40
15172;DHT22;7686;52.184;9.280;2023-04-15T01:17:57;28.10;30.40
15172;DHT22;7686;52.184;9.280;2023-04-15T01:20:24;28.00;30.40
15172;DHT22;7686;52.184;9.280;2023-04-15T01:22:51;28.10;30.40
15172;DHT22;7686;52.184;9.280;2023-04-15T01:25:31;28.00;30.40
15172;DHT22;7686;52.184;9.280;2023-04-15T01:28:01;28.00;30.40
15172;DHT22;7686;52.184;9.280;2023-04-15T01:30:27;28.00;30.40
15172;DHT22;7686;52.184;9.280;2023-04-15T01:32:54;28.00;30.40
15172;DHT22;7686;52.184;9.280;2023-04-15T01:35:21;28.00;30.40
15172;DHT22;7686;52.184;9.280;2023-04-15T01:37:48;28.00;30.40
15172;DHT22;7686;52.184;9.280;2023-04-15T01:40:15;28.00;30.40
15172;DHT22;7686;52.184;9.280;2023-04-15T01:42:41;28.00;30.50
15172;DHT22;7686;52.184;9.280;2023-04-15T01:45:08;27.90;30.40
15172;DHT22;7686;52.184;9.280;2023-04-15T01:47:35;28.00;30.50
15172;DHT22;7686;52.184;9.280;2023-04-15T01:50:02;28.00;31.20
15172;DHT22;7686;52.184;9.280;2023-04-15T01:52:29;27.90;30.40
15172;DHT22;7686;52.184;9.280;2023-04-15T01:54:55;27.90;30.50
15172;DHT22;7686;52.184;9.280;2023-04-15T01:57:22;27.90;30.50
15172;DHT22;7686;52.184;9.280;2023-04-15T01:59:49;27.90;30.40
15172;DHT22;7686;52.184;9.280;2023-04-15T02:02:15;28.00;30.50
15172;DHT22;7686;52.184;9.280;2023-04-15T02:04:42;27.90;30.50
15172;DHT22;7686;52.184;9.280;2023-04-15T02:07:10;27.90;30.50
15172;DHT22;7686;52.184;9.280;2023-04-15T02:09:36;27.90;30.50
15172;DHT22;7686;52.184;9.280;2023-04-15T02:12:04;27.90;30.50
15172;DHT22;7686;52.184;9.280;2023-04-15T02:14:31;27.90;30.50
15172;DHT22;7686;52.184;9.280;2023-04-15T02:16:57;27.90;30.50
15172;DHT22;7686;52.184;9.280;2023-04-15T02:19:27;27.90;30.50
15172;DHT22;7686;52.184;9.280;2023-04-15T02:21:54;27.90;30.50
15172;DHT22;7686;52.184;9.280;2023-04-15T02:24:20;27.90;30.50
15172;DHT22;7686;52.184;9.280;2023-04-15T02:26:47;27.80;30.40
15172;DHT22;7686;52.184;9.280;2023-04-15T02:29:14;27.80;30.40
15172;DHT22;7686;52.184;9.280;2023-04-15T02:31:41;27.80;30.50
15172;DHT22;7686;52.184;9.280;2023-04-15T02:34:09;27.80;30.50
15172;DHT22;7686;52.184;9.280;2023-04-15T02:36:35;27.80;30.50
15172;DHT22;7686;52.184;9.280;2023-04-15T02:39:02;27.80;30.50
15172;DHT22;7686;52.184;9.280;2023-04-15T02:41:29;27.80;30.50
15172;DHT22;7686;52.184;9.280;2023-04-15T02:43:56;27.80;30.50
15172;DHT22;7686;52.184;9.280;2023-04-15T02:46:23;27.80;30.50
15172;DHT22;7686;52.184;9.280;2023-04-15T02:48:49;27.80;30.50
15172;DHT22;7686;52.184;9.280;2023-04-15T02:51:18;27.80;31.20
15172;DHT22;7686;52.184;9.280;2023-04-15T02:53:46;27.90;30.60
15172;DHT22;7686;52.184;9.280;2023-04-15T02:56:12;27.80;30.50
15172;DHT22;7686;52.184;9.280;2023-04-15T02:58:42;27.70;30.50
15172;DHT22;7686;52.184;9.280;2023-04-15T03:01:09;27.70;30.50
15172;DHT22;7686;52.184;9.280;2023-04-15T03:03:35;27.70;30.50
15172;DHT22;7686;52.184;9.280;2023-04-15T03:06:02;27.70;30.50
15172;DHT22;7686;52.184;9.280;2023-04-15T03:08:29;27.70;30.50
15172;DHT22;7686;52.184;9.280;2023-04-15T03:10:57;27.70;30.50
15172;DHT22;7686;52.184;9.280;2023-04-15T03:13:26;27.70;30.50
15172;DHT22;7686;52.184;9.280;2023-04-15T03:15:52;27.70;30.50
15172;DHT22;7686;52.184;9.280;2023-04-15T03:18:19;27.70;30.50
15172;DHT22;7686;52.184;9.280;2023-04-15T03:20:46;27.70;30.60
15172;DHT22;7686;52.184;9.280;2023-04-15T03:23:13;27.70;30.60
15172;DHT22;7686;52.184;9.280;2023-04-15T03:25:40;27.60;30.50
15172;DHT22;7686;52.184;9.280;2023-04-15T03:28:07;27.60;30.50
15172;DHT22;7686;52.184;9.280;2023-04-15T03:30:33;27.60;30.50
15172;DHT22;7686;52.184;9.280;2023-04-15T03:33:00;27.60;30.50
15172;DHT22;7686;52.184;9.280;2023-04-15T03:35:27;27.60;30.60
15172;DHT22;7686;52.184;9.280;2023-04-15T03:37:53;27.60;30.50
15172;DHT22;7686;52.184;9.280;2023-04-15T03:40:20;27.60;30.60
15172;DHT22;7686;52.184;9.280;2023-04-15T03:42:47;27.60;30.60
15172;DHT22;7686;52.184;9.280;2023-04-15T03:45:13;27.60;30.70
15172;DHT22;7686;52.184;9.280;2023-04-15T03:47:40;27.60;30.60
15172;DHT22;7686;52.184;9.280;2023-04-15T03:50:07;27.60;30.60
15172;DHT22;7686;52.184;9.280;2023-04-15T03:52:34;27.60;30.60
15172;DHT22;7686;52.184;9.280;2023-04-15T03:55:00;27.60;30.60
15172;DHT22;7686;52.184;9.280;2023-04-15T03:57:27;27.60;30.60
15172;DHT22;7686;52.184;9.280;2023-04-15T03:59:54;27.60;30.60
15172;DHT22;7686;52.184;9.280;2023-04-15T04:02:20;27.60;30.60
15172;DHT22;7686;52.184;9.280;2023-04-15T04:04:48;27.60;30.60
15172;DHT22;7686;52.184;9.280;2023-04-15T04:07:15;27.60;30.70
15172;DHT22;7686;52.184;9.280;2023-04-15T04:09:42;27.50;30.60
15172;DHT22;7686;52.184;9.280;2023-04-15T04:12:11;27.50;30.60
15172;DHT22;7686;52.184;9.280;2023-04-15T04:14:37;27.50;30.60
15172;DHT22;7686;52.184;9.280;2023-04-15T04:17:04;27.50;30.60
15172;DHT22;7686;52.184;9.280;2023-04-15T04:19:31;27.50;30.70
15172;DHT22;7686;52.184;9.280;2023-04-15T04:21:57;27.50;30.60
15172;DHT22;7686;52.184;9.280;2023-04-15T04:24:24;27.50;30.60
15172;DHT22;7686;52.184;9.280;2023-04-15T04:26:51;27.50;30.60
15172;DHT22;7686;52.184;9.280;2023-04-15T04:29:18;27.50;30.60
15172;DHT22;7686;52.184;9.280;2023-04-15T04:31:44;27.50;30.60
15172;DHT22;7686;52.184;9.280;2023-04-15T04:34:12;27.50;30.60
15172;DHT22;7686;52.184;9.280;2023-04-15T04:36:38;27.40;30.50
15172;DHT22;7686;52.184;9.280;2023-04-15T04:39:05;27.50;30.70
15172;DHT22;7686;52.184;9.280;2023-04-15T04:41:32;27.50;30.60
15172;DHT22;7686;52.184;9.280;2023-04-15T04:43:58;27.50;30.60
15172;DHT22;7686;52.184;9.280;2023-04-15T04:46:25;27.50;30.60
15172;DHT22;7686;52.184;9.280;2023-04-15T04:48:51;27.50;30.70
15172;DHT22;7686;52.184;9.280;2023-04-15T04:51:18;27.50;30.70
15172;DHT22;7686;52.184;9.280;2023-04-15T04:53:45;27.50;30.70
15172;DHT22;7686;52.184;9.280;2023-04-15T04:56:11;27.40;30.70
15172;DHT22;7686;52.184;9.280;2023-04-15T04:58:38;27.40;30.60
15172;DHT22;7686;52.184;9.280;2023-04-15T05:01:05;27.40;30.70
15172;DHT22;7686;52.184;9.280;2023-04-15T05:03:31;27.40;30.60
15172;DHT22;7686;52.184;9.280;2023-04-15T05:05:58;27.40;30.70
15172;DHT22;7686;52.184;9.280;2023-04-15T05:08:25;27.40;30.70
15172;DHT22;7686;52.184;9.280;2023-04-15T05:10:51;27.40;30.70
15172;DHT22;7686;52.184;9.280;2023-04-15T05:13:18;27.40;30.70
15172;DHT22;7686;52.184;9.280;2023-04-15T05:15:46;27.40;30.70
15172;DHT22;7686;52.184;9.280;2023-04-15T05:18:13;27.40;30.70
15172;DHT22;7686;52.184;9.280;2023-04-15T05:20:40;27.40;30.70
15172;DHT22;7686;52.184;9.280;2023-04-15T05:23:06;27.40;30.80
15172;DHT22;7686;52.184;9.280;2023-04-15T05:25:33;27.40;30.80
15172;DHT22;7686;52.184;9.280;2023-04-15T05:28:00;27.40;30.80
15172;DHT22;7686;52.184;9.280;2023-04-15T05:30:26;27.40;30.80
15172;DHT22;7686;52.184;9.280;2023-04-15T05:32:53;27.40;30.80
15172;DHT22;7686;52.184;9.280;2023-04-15T05:35:20;27.40;30.80
15172;DHT22;7686;52.184;9.280;2023-04-15T05:37:46;27.40;30.90
15172;DHT22;7686;52.184;9.280;2023-04-15T05:40:13;27.40;30.80
15172;DHT22;7686;52.184;9.280;2023-04-15T05:42:40;27.50;31.00
15172;DHT22;7686;52.184;9.280;2023-04-15T05:45:07;27.50;30.90
15172;DHT22;7686;52.184;9.280;2023-04-15T05:47:35;27.50;31.00
15172;DHT22;7686;52.184;9.280;2023-04-15T05:50:03;27.50;30.90
15172;DHT22;7686;52.184;9.280;2023-04-15T05:52:30;27.50;31.00
15172;DHT22;7686;52.184;9.280;2023-04-15T05:54:57;27.50;31.00
15172;DHT22;7686;52.184;9.280;2023-04-15T05:57:24;27.50;30.90
15172;DHT22;7686;52.184;9.280;2023-04-15T05:59:51;27.50;30.90
15172;DHT22;7686;52.184;9.280;2023-04-15T06:02:18;27.50;30.90
15172;DHT22;7686;52.184;9.280;2023-04-15T06:04:45;27.50;30.90
15172;DHT22;7686;52.184;9.280;2023-04-15T06:07:11;27.50;31.00
15172;DHT22;7686;52.184;9.280;2023-04-15T06:09:38;27.50;30.90
15172;DHT22;7686;52.184;9.280;2023-04-15T06:12:05;27.50;30.90
15172;DHT22;7686;52.184;9.280;2023-04-15T06:14:32;27.60;31.10
15172;DHT22;7686;52.184;9.280;2023-04-15T06:16:58;27.50;31.00
15172;DHT22;7686;52.184;9.280;2023-04-15T06:19:25;27.60;31.00
15172;DHT22;7686;52.184;9.280;2023-04-15T06:21:52;27.60;31.00
15172;DHT22;7686;52.184;9.280;2023-04-15T06:24:18;27.60;31.00
15172;DHT22;7686;52.184;9.280;2023-04-15T06:26:45;27.60;31.00
15172;DHT22;7686;52.184;9.280;2023-04-15T06:29:11;27.60;31.00
15172;DHT22;7686;52.184;9.280;2023-04-15T06:31:38;27.60;31.00
15172;DHT22;7686;52.184;9.280;2023-04-15T06:34:05;27.60;31.00
15172;DHT22;7686;52.184;9.280;2023-04-15T06:36:31;27.60;31.00
15172;DHT22;7686;52.184;9.280;2023-04-15T06:38:58;27.60;31.00
15172;DHT22;7686;52.184;9.280;2023-04-15T06:41:25;27.60;31.00
15172;DHT22;7686;52.184;9.280;2023-04-15T06:43:51;27.60;31.00
15172;DHT22;7686;52.184;9.280;2023-04-15T06:46:18;27.60;31.00
15172;DHT22;7686;52.184;9.280;2023-04-15T06:48:45;27.60;31.00
15172;DHT22;7686;52.184;9.280;2023-04-15T06:51:12;27.70;31.00
15172;DHT22;7686;52.184;9.280;2023-04-15T06:53:39;27.60;31.00
15172;DHT22;7686;52.184;9.280;2023-04-15T06:56:08;27.60;31.00
15172;DHT22;7686;52.184;9.280;2023-04-15T06:58:35;27.60;31.00
15172;DHT22;7686;52.184;9.280;2023-04-15T07:01:02;27.60;31.00
15172;DHT22;7686;52.184;9.280;2023-04-15T07:03:29;27.70;31.10
15172;DHT22;7686;52.184;9.280;2023-04-15T07:05:58;27.70;31.10
15172;DHT22;7686;52.184;9.280;2023-04-15T07:08:25;27.70;31.10
15172;DHT22;7686;52.184;9.280;2023-04-15T07:10:51;27.70;31.10
15172;DHT22;7686;52.184;9.280;2023-04-15T07:13:19;27.70;31.10
15172;DHT22;7686;52.184;9.280;2023-04-15T07:15:46;27.80;31.10
15172;DHT22;7686;52.184;9.280;2023-04-15T07:18:12;27.70;31.10
15172;DHT22;7686;52.184;9.280;2023-04-15T07:20:39;27.70;31.00
15172;DHT22;7686;52.184;9.280;2023-04-15T07:23:06;27.70;31.00
15172;DHT22;7686;52.184;9.280;2023-04-15T07:25:32;27.70;31.10
15172;DHT22;7686;52.184;9.280;2023-04-15T07:27:59;27.70;31.10
15172;DHT22;7686;52.184;9.280;2023-04-15T07:30:25;27.70;31.10
15172;DHT22;7686;52.184;9.280;2023-04-15T07:32:53;27.70;31.10
15172;DHT22;7686;52.184;9.280;2023-04-15T07:35:19;27.70;31.10
15172;DHT22;7686;52.184;9.280;2023-04-15T07:37:47;27.70;31.10
15172;DHT22;7686;52.184;9.280;2023-04-15T07:40:14;27.80;31.10
15172;DHT22;7686;52.184;9.280;2023-04-15T07:42:41;27.80;31.20
15172;DHT22;7686;52.184;9.280;2023-04-15T07:45:09;27.80;31.20
15172;DHT22;7686;52.184;9.280;2023-04-15T07:47:35;27.80;31.10
15172;DHT22;7686;52.184;9.280;2023-04-15T07:50:02;27.80;31.10
15172;DHT22;7686;52.184;9.280;2023-04-15T07:52:29;27.80;31.20
15172;DHT22;7686;52.184;9.280;2023-04-15T07:54:56;27.80;31.10
15172;DHT22;7686;52.184;9.280;2023-04-15T07:57:22;27.80;31.10
15172;DHT22;7686;52.184;9.280;2023-04-15T07:59:49;27.80;31.10
15172;DHT22;7686;52.184;9.280;2023-04-15T08:02:15;27.70;31.10
15172;DHT22;7686;52.184;9.280;2023-04-15T08:04:42;27.80;31.10
15172;DHT22;7686;52.184;9.280;2023-04-15T08:07:09;27.80;31.20
15172;DHT22;7686;52.184;9.280;2023-04-15T08:09:36;27.80;31.10
15172;DHT22;7686;52.184;9.280;2023-04-15T08:12:03;27.70;31.10
15172;DHT22;7686;52.184;9.280;2023-04-15T08:14:29;27.70;31.20
15172;DHT22;7686;52.184;9.280;2023-04-15T08:16:56;27.80;31.30
15172;DHT22;7686;52.184;9.280;2023-04-15T08:19:23;27.70;31.20
15172;DHT22;7686;52.184;9.280;2023-04-15T08:21:50;27.70;31.20
15172;DHT22;7686;52.184;9.280;2023-04-15T08:24:17;27.70;31.30
15172;DHT22;7686;52.184;9.280;2023-04-15T08:26:44;27.70;31.30
15172;DHT22;7686;52.184;9.280;2023-04-15T08:29:12;27.70;31.30
15172;DHT22;7686;52.184;9.280;2023-04-15T08:31:38;27.70;31.40
15172;DHT22;7686;52.184;9.280;2023-04-15T08:34:05;27.70;31.30
15172;DHT22;7686;52.184;9.280;2023-04-15T08:36:32;27.70;31.40
15172;DHT22;7686;52.184;9.280;2023-04-15T08:38:59;27.70;31.30
15172;DHT22;7686;52.184;9.280;2023-04-15T08:41:39;27.70;31.40
15172;DHT22;7686;52.184;9.280;2023-04-15T08:44:06;27.70;31.40
15172;DHT22;7686;52.184;9.280;2023-04-15T08:46:33;27.70;31.40
15172;DHT22;7686;52.184;9.280;2023-04-15T08:49:03;27.70;31.40
15172;DHT22;7686;52.184;9.280;2023-04-15T08:51:31;27.70;31.40
15172;DHT22;7686;52.184;9.280;2023-04-15T08:53:59;27.80;31.50
15172;DHT22;7686;52.184;9.280;2023-04-15T08:56:27;27.70;31.40
15172;DHT22;7686;52.184;9.280;2023-04-15T08:58:57;27.70;31.50
15172;DHT22;7686;52.184;9.280;2023-04-15T09:01:24;27.70;31.40
15172;DHT22;7686;52.184;9.280;2023-04-15T09:03:52;27.70;31.30
15172;DHT22;7686;52.184;9.280;2023-04-15T09:06:22;27.70;31.20
15172;DHT22;7686;52.184;9.280;2023-04-15T09:08:49;27.80;31.30
15172;DHT22;7686;52.184;9.280;2023-04-15T09:11:17;27.70;31.20
15172;DHT22;7686;52.184;9.280;2023-04-15T09:13:45;27.80;31.30
15172;DHT22;7686;52.184;9.280;2023-04-15T09:16:12;27.70;32.00
15172;DHT22;7686;52.184;9.280;2023-04-15T09:18:39;27.70;31.30
15172;DHT22;7686;52.184;9.280;2023-04-15T09:21:11;27.70;31.40
15172;DHT22;7686;52.184;9.280;2023-04-15T09:23:41;27.70;31.40
15172;DHT22;7686;52.184;9.280;2023-04-15T09:26:19;27.70;31.50
15172;DHT22;7686;52.184;9.280;2023-04-15T09:29:08;27.70;31.40
15172;DHT22;7686;52.184;9.280;2023-04-15T09:31:36;27.70;31.50
15172;DHT22;7686;52.184;9.280;2023-04-15T09:34:03;27.80;31.50
15172;DHT22;7686;52.184;9.280;2023-04-15T09:36:58;27.70;31.50
15172;DHT22;7686;52.184;9.280;2023-04-15T09:39:24;27.70;31.40
15172;DHT22;7686;52.184;9.280;2023-04-15T09:42:04;27.70;31.40
15172;DHT22;7686;52.184;9.280;2023-04-15T09:44:32;27.80;31.50
15172;DHT22;7686;52.184;9.280;2023-04-15T09:46:58;27.80;31.60
15172;DHT22;7686;52.184;9.280;2023-04-15T09:49:25;27.80;31.50
15172;DHT22;7686;52.184;9.280;2023-04-15T09:51:57;27.80;31.60
15172;DHT22;7686;52.184;9.280;2023-04-15T09:54:33;27.80;31.60
15172;DHT22;7686;52.184;9.280;2023-04-15T09:57:07;27.80;31.60
15172;DHT22;7686;52.184;9.280;2023-04-15T09:59:35;27.80;31.60
15172;DHT22;7686;52.184;9.280;2023-04-15T10:02:03;27.80;31.70
15172;DHT22;7686;52.184;9.280;2023-04-15T10:04:34;27.70;31.70
15172;DHT22;7686;52.184;9.280;2023-04-15T10:07:04;27.80;31.70
15172;DHT22;7686;52.184;9.280;2023-04-15T10:09:31;27.80;31.80
15172;DHT22;7686;52.184;9.280;2023-04-15T10:11:59;27.80;31.60
15172;DHT22;7686;52.184;9.280;2023-04-15T10:14:27;27.80;31.70
15172;DHT22;7686;52.184;9.280;2023-04-15T10:16:55;27.80;31.80
15172;DHT22;7686;52.184;9.280;2023-04-15T10:19:26;27.80;31.70
15172;DHT22;7686;52.184;9.280;2023-04-15T10:21:54;27.70;31.70
15172;DHT22;7686;52.184;9.280;2023-04-15T10:24:22;27.70;31.80
15172;DHT22;7686;52.184;9.280;2023-04-15T10:26:50;27.80;31.90
15172;DHT22;7686;52.184;9.280;2023-04-15T10:29:17;27.80;31.90
15172;DHT22;7686;52.184;9.280;2023-04-15T10:31:45;27.80;31.90
15172;DHT22;7686;52.184;9.280;2023-04-15T10:34:12;27.80;31.90
15172;DHT22;7686;52.184;9.280;2023-04-15T10:36:40;27.80;31.90
15172;DHT22;7686;52.184;9.280;2023-04-15T10:42:06;27.80;32.10
15172;DHT22;7686;52.184;9.280;2023-04-15T10:44:38;27.80;32.00
15172;DHT22;7686;52.184;9.280;2023-04-15T10:47:12;27.80;32.00
15172;DHT22;7686;52.184;9.280;2023-04-15T10:49:57;27.80;32.10
15172;DHT22;7686;52.184;9.280;2023-04-15T10:52:25;27.80;32.10
15172;DHT22;7686;52.184;9.280;2023-04-15T10:55:03;27.80;32.10
15172;DHT22;7686;52.184;9.280;2023-04-15T10:57:38;27.80;32.10
15172;DHT22;7686;52.184;9.280;2023-04-15T11:00:11;27.80;32.00
15172;DHT22;7686;52.184;9.280;2023-04-15T11:02:51;27.80;32.00
15172;DHT22;7686;52.184;9.280;2023-04-15T11:05:19;27.80;32.00
15172;DHT22;7686;52.184;9.280;2023-04-15T11:07:52;27.80;32.00
15172;DHT22;7686;52.184;9.280;2023-04-15T11:13:03;27.80;32.10
15172;DHT22;7686;52.184;9.280;2023-04-15T11:15:37;27.90;32.20
15172;DHT22;7686;52.184;9.280;2023-04-15T11:18:12;27.80;32.00
15172;DHT22;7686;52.184;9.280;2023-04-15T11:20:40;27.80;32.10
15172;DHT22;7686;52.184;9.280;2023-04-15T11:23:08;27.80;32.10
15172;DHT22;7686;52.184;9.280;2023-04-15T11:25:41;27.80;32.10
15172;DHT22;7686;52.184;9.280;2023-04-15T11:28:08;27.80;32.10
15172;DHT22;7686;52.184;9.280;2023-04-15T11:30:36;27.90;32.20
15172;DHT22;7686;52.184;9.280;2023-04-15T11:33:04;27.90;32.20
15172;DHT22;7686;52.184;9.280;2023-04-15T11:35:31;27.90;32.30
15172;DHT22;7686;52.184;9.280;2023-04-15T11:38:02;27.90;32.20
15172;DHT22;7686;52.184;9.280;2023-04-15T11:40:29;27.90;32.30
15172;DHT22;7686;52.184;9.280;2023-04-15T11:43:17;27.90;32.30
15172;DHT22;7686;52.184;9.280;2023-04-15T11:45:51;27.90;32.30
15172;DHT22;7686;52.184;9.280;2023-04-15T11:48:20;27.90;32.30
15172;DHT22;7686;52.184;9.280;2023-04-15T11:50:59;27.90;32.90
15172;DHT22;7686;52.184;9.280;2023-04-15T11:53:41;27.90;32.20
15172;DHT22;7686;52.184;9.280;2023-04-15T11:56:09;27.90;32.20
15172;DHT22;7686;52.184;9.280;2023-04-15T11:58:37;27.90;32.10
15172;DHT22;7686;52.184;9.280;2023-04-15T12:01:05;28.00;32.10
15172;DHT22;7686;52.184;9.280;2023-04-15T12:03:44;28.00;32.20
15172;DHT22;7686;52.184;9.280;2023-04-15T12:06:21;27.90;32.20
15172;DHT22;7686;52.184;9.280;2023-04-15T12:11:20;28.00;32.20
15172;DHT22;7686;52.184;9.280;2023-04-15T12:13:48;28.00;32.20
15172;DHT22;7686;52.184;9.280;2023-04-15T12:16:21;28.00;32.20
15172;DHT22;7686;52.184;9.280;2023-04-15T12:18:55;28.00;32.20
15172;DHT22;7686;52.184;9.280;2023-04-15T12:21:23;28.00;32.30
15172;DHT22;7686;52.184;9.280;2023-04-15T12:23:52;28.00;32.20
15172;DHT22;7686;52.184;9.280;2023-04-15T12:26:26;28.00;32.20
15172;DHT22;7686;52.184;9.280;2023-04-15T12:29:01;28.00;32.20
15172;DHT22;7686;52.184;9.280;2023-04-15T12:31:28;28.00;32.30
15172;DHT22;7686;52.184;9.280;2023-04-15T12:33:59;28.10;32.20
15172;DHT22;7686;52.184;9.280;2023-04-15T12:36:27;28.10;32.20
15172;DHT22;7686;52.184;9.280;2023-04-15T12:38:53;28.10;32.20
15172;DHT22;7686;52.184;9.280;2023-04-15T12:41:20;28.10;32.20
15172;DHT22;7686;52.184;9.280;2023-04-15T12:43:47;28.10;32.10
15172;DHT22;7686;52.184;9.280;2023-04-15T12:46:14;28.10;32.10
15172;DHT22;7686;52.184;9.280;2023-04-15T12:48:41;28.10;32.80
15172;DHT22;7686;52.184;9.280;2023-04-15T12:51:08;28.10;32.10
15172;DHT22;7686;52.184;9.280;2023-04-15T12:53:34;28.10;32.10
15172;DHT22;7686;52.184;9.280;2023-04-15T12:56:01;28.20;32.20
15172;DHT22;7686;52.184;9.280;2023-04-15T12:58:27;28.10;32.10
15172;DHT22;7686;52.184;9.280;2023-04-15T13:00:54;28.10;32.10
15172;DHT22;7686;52.184;9.280;2023-04-15T13:03:22;28.20;32.00
15172;DHT22;7686;52.184;9.280;2023-04-15T13:05:49;28.10;32.00
15172;DHT22;7686;52.184;9.280;2023-04-15T13:08:16;28.10;31.90
15172;DHT22;7686;52.184;9.280;2023-04-15T13:10:43;28.20;31.90
15172;DHT22;7686;52.184;9.280;2023-04-15T13:13:09;28.10;31.80
15172;DHT22;7686;52.184;9.280;2023-04-15T13:15:36;28.10;31.90
15172;DHT22;7686;52.184;9.280;2023-04-15T13:18:05;28.10;31.90
15172;DHT22;7686;52.184;9.280;2023-04-15T13:20:32;28.10;31.90
15172;DHT22;7686;52.184;9.280;2023-04-15T13:22:58;28.10;31.90
15172;DHT22;7686;52.184;9.280;2023-04-15T13:25:25;28.10;31.90
15172;DHT22;7686;52.184;9.280;2023-04-15T13:27:52;28.10;32.00
15172;DHT22;7686;52.184;9.280;2023-04-15T13:30:19;28.20;32.10
15172;DHT22;7686;52.184;9.280;2023-04-15T13:32:45;28.10;32.00
15172;DHT22;7686;52.184;9.280;2023-04-15T13:35:15;28.10;32.10
15172;DHT22;7686;52.184;9.280;2023-04-15T13:37:42;28.10;32.10
15172;DHT22;7686;52.184;9.280;2023-04-15T13:40:09;28.10;32.10
15172;DHT22;7686;52.184;9.280;2023-04-15T13:42:36;28.10;32.10
15172;DHT22;7686;52.184;9.280;2023-04-15T13:45:03;28.10;32.10
15172;DHT22;7686;52.184;9.280;2023-04-15T13:47:29;28.10;32.10
15172;DHT22;7686;52.184;9.280;2023-04-15T13:49:56;28.10;32.10
15172;DHT22;7686;52.184;9.280;2023-04-15T13:52:23;28.10;32.10
15172;DHT22;7686;52.184;9.280;2023-04-15T13:54:49;28.10;32.10
15172;DHT22;7686;52.184;9.280;2023-04-15T13:57:37;28.10;32.10
15172;DHT22;7686;52.184;9.280;2023-04-15T14:00:04;28.10;32.00
15172;DHT22;7686;52.184;9.280;2023-04-15T14:02:31;28.10;32.10
15172;DHT22;7686;52.184;9.280;2023-04-15T14:04:58;28.10;32.10
15172;DHT22;7686;52.184;9.280;2023-04-15T14:07:25;28.00;32.20
15172;DHT22;7686;52.184;9.280;2023-04-15T14:09:51;28.00;32.20
15172;DHT22;7686;52.184;9.280;2023-04-15T14:12:18;28.10;32.30
15172;DHT22;7686;52.184;9.280;2023-04-15T14:14:44;28.10;32.50
15172;DHT22;7686;52.184;9.280;2023-04-15T14:17:11;28.10;32.40
15172;DHT22;7686;52.184;9.280;2023-04-15T14:19:38;28.20;32.30
15172;DHT22;7686;52.184;9.280;2023-04-15T14:22:05;28.40;32.30
15172;DHT22;7686;52.184;9.280;2023-04-15T14:24:31;28.50;32.10
15172;DHT22;7686;52.184;9.280;2023-04-15T14:26:58;28.70;32.10
15172;DHT22;7686;52.184;9.280;2023-04-15T14:29:25;28.80;31.90
15172;DHT22;7686;52.184;9.280;2023-04-15T14:31:51;29.00;31.70
15172;DHT22;7686;52.184;9.280;2023-04-15T14:34:38;29.20;31.50
15172;DHT22;7686;52.184;9.280;2023-04-15T14:37:04;29.20;31.30
15172;DHT22;7686;52.184;9.280;2023-04-15T14:39:31;29.40;31.10
15172;DHT22;7686;52.184;9.280;2023-04-15T14:41:58;29.60;31.00
15172;DHT22;7686;52.184;9.280;2023-04-15T14:44:24;29.60;30.80
15172;DHT22;7686;52.184;9.280;2023-04-15T14:46:51;29.70;30.70
15172;DHT22;7686;52.184;9.280;2023-04-15T14:49:18;29.80;30.60
15172;DHT22;7686;52.184;9.280;2023-04-15T14:51:44;29.80;30.50
15172;DHT22;7686;52.184;9.280;2023-04-15T14:54:11;29.80;30.40
15172;DHT22;7686;52.184;9.280;2023-04-15T14:56:38;30.00;30.50
15172;DHT22;7686;52.184;9.280;2023-04-15T14:59:05;29.80;30.40
15172;DHT22;7686;52.184;9.280;2023-04-15T15:01:32;29.90;30.40
15172;DHT22;7686;52.184;9.280;2023-04-15T15:03:59;29.80;30.40
15172;DHT22;7686;52.184;9.280;2023-04-15T15:06:26;29.80;30.40
15172;DHT22;7686;52.184;9.280;2023-04-15T15:08:53;29.80;30.60
15172;DHT22;7686;52.184;9.280;2023-04-15T15:11:19;29.70;30.60
15172;DHT22;7686;52.184;9.280;2023-04-15T15:13:46;29.70;30.60
15172;DHT22;7686;52.184;9.280;2023-04-15T15:16:12;29.70;30.60
15172;DHT22;7686;52.184;9.280;2023-04-15T15:18:40;29.60;30.60
15172;DHT22;7686;52.184;9.280;2023-04-15T15:21:06;29.60;30.70
15172;DHT22;7686;52.184;9.280;2023-04-15T15:23:33;29.60;30.80
15172;DHT22;7686;52.184;9.280;2023-04-15T15:26:00;29.60;30.90
15172;DHT22;7686;52.184;9.280;2023-04-15T15:28:26;29.50;30.90
15172;DHT22;7686;52.184;9.280;2023-04-15T15:30:53;29.50;30.90
15172;DHT22;7686;52.184;9.280;2023-04-15T15:33:20;29.50;30.90
15172;DHT22;7686;52.184;9.280;2023-04-15T15:35:46;29.50;30.90
15172;DHT22;7686;52.184;9.280;2023-04-15T15:38:13;29.50;30.90
15172;DHT22;7686;52.184;9.280;2023-04-15T15:40:40;29.50;30.90
15172;DHT22;7686;52.184;9.280;2023-04-15T15:43:06;29.50;30.90
15172;DHT22;7686;52.184;9.280;2023-04-15T15:45:34;29.50;30.90
15172;DHT22;7686;52.184;9.280;2023-04-15T15:48:01;29.50;30.90
15172;DHT22;7686;52.184;9.280;2023-04-15T15:50:27;29.50;30.90
15172;DHT22;7686;52.184;9.280;2023-04-15T15:52:54;29.50;30.90
15172;DHT22;7686;52.184;9.280;2023-04-15T15:55:21;29.50;30.90
15172;DHT22;7686;52.184;9.280;2023-04-15T15:57:48;29.50;30.90